Terminal Aerodrome Forecast
Issued by NWS Jacksonville, FL

Home | Current Version | Previous Version | Text Only | Print | Product List | Glossary On
Versions: 1 2 3 4 5 6 7 8 9 10 11 12 13 14 15 16 17 18 19 20 21 22 23
000
FTUS42 KJAX 012300
TAFGNV
TAF
KGNV 012325Z 0200/0224 04003KT P6SM SCT030 SCT050
     FM020700 02002KT 3SM BR BKN018 BKN060
      TEMPO 0210/0213 2SM BR BKN010
     FM021400 06005KT P6SM SCT020 BKN050
     FM021900 06007KT P6SM VCSH SCT030 BKN060=

USA.gov is the U.S. government's official web portal to all federal, state and local government web resources and services.